createdAt,value
2023-04-04T00:01:06.642Z,8.40
2023-04-04T00:03:47.255Z,9.40
2023-04-04T00:06:31.055Z,7.00
2023-04-04T00:09:07.073Z,8.90
2023-04-04T00:11:42.340Z,9.30
2023-04-04T00:14:17.854Z,10.30
2023-04-04T00:16:53.523Z,8.50
2023-04-04T00:19:28.620Z,9.50
2023-04-04T00:22:04.544Z,13.70
2023-04-04T00:24:40.131Z,9.40
2023-04-04T00:27:15.140Z,9.40
2023-04-04T00:29:49.900Z,10.80
2023-04-04T00:32:23.415Z,11.00
2023-04-04T00:34:59.239Z,11.70
2023-04-04T00:37:39.227Z,10.90
2023-04-04T00:40:16.671Z,8.00
2023-04-04T00:42:52.245Z,10.40
2023-04-04T00:45:28.863Z,9.20
2023-04-04T00:48:06.960Z,9.10
2023-04-04T00:50:42.697Z,13.10
2023-04-04T00:53:19.572Z,9.60
2023-04-04T00:55:55.122Z,8.90
2023-04-04T00:58:31.639Z,8.90
2023-04-04T01:01:06.023Z,9.40
2023-04-04T01:03:43.101Z,8.60
2023-04-04T01:06:18.833Z,9.00
2023-04-04T01:08:59.073Z,11.00
2023-04-04T01:11:36.287Z,11.10
2023-04-04T01:14:12.035Z,10.30
2023-04-04T01:16:49.839Z,10.90
2023-04-04T01:19:34.479Z,9.90
2023-04-04T01:22:18.773Z,9.10
2023-04-04T01:24:57.678Z,12.60
2023-04-04T01:27:34.564Z,10.40
2023-04-04T01:30:19.071Z,9.50
2023-04-04T01:33:01.901Z,11.20
2023-04-04T01:35:42.913Z,11.40
2023-04-04T01:38:27.145Z,11.20
2023-04-04T01:41:09.510Z,11.00
2023-04-04T01:43:51.929Z,8.20
2023-04-04T01:46:29.393Z,9.10
2023-04-04T01:49:05.097Z,9.60
2023-04-04T01:51:42.834Z,8.20
2023-04-04T01:54:28.574Z,6.80
2023-04-04T01:57:03.921Z,7.80
2023-04-04T01:59:41.078Z,7.80
2023-04-04T02:02:16.368Z,9.00
2023-04-04T02:04:52.533Z,7.90
2023-04-04T02:07:26.337Z,8.90
2023-04-04T02:10:03.661Z,8.30
2023-04-04T02:12:40.379Z,7.90
2023-04-04T02:15:17.917Z,9.70
2023-04-04T02:17:55.007Z,11.90
2023-04-04T02:20:31.680Z,7.40
2023-04-04T02:23:08.318Z,6.60
2023-04-04T02:25:42.428Z,7.50
2023-04-04T02:28:17.020Z,7.10
2023-04-04T02:30:54.213Z,7.00
2023-04-04T02:33:28.952Z,5.50
2023-04-04T02:36:08.114Z,5.90
2023-04-04T02:38:43.149Z,8.60
2023-04-04T02:41:21.623Z,7.40
2023-04-04T02:43:56.270Z,7.10
2023-04-04T02:46:32.189Z,6.30
2023-04-04T02:49:10.064Z,6.10
2023-04-04T02:51:47.703Z,6.30
2023-04-04T02:54:25.152Z,5.80
2023-04-04T02:57:00.759Z,5.50
2023-04-04T02:59:35.222Z,6.70
2023-04-04T03:02:12.859Z,7.60
2023-04-04T03:04:49.556Z,6.40
2023-04-04T03:07:26.101Z,8.10
2023-04-04T03:10:02.285Z,7.10
2023-04-04T03:12:37.206Z,7.60
2023-04-04T03:15:15.309Z,6.20
2023-04-04T03:17:51.916Z,6.00
2023-04-04T03:20:29.123Z,7.10
2023-04-04T03:23:06.284Z,6.10
2023-04-04T03:25:40.513Z,6.60
2023-04-04T03:28:18.604Z,6.80
2023-04-04T03:30:55.785Z,5.90
2023-04-04T03:33:30.939Z,8.70
2023-04-04T03:36:11.141Z,6.80
2023-04-04T03:38:48.362Z,8.10
2023-04-04T03:41:22.368Z,7.00
2023-04-04T03:43:58.554Z,8.50
2023-04-04T03:46:35.387Z,7.10
2023-04-04T03:49:12.605Z,7.80
2023-04-04T03:51:48.871Z,6.30
2023-04-04T03:54:24.776Z,8.00
2023-04-04T03:57:00.816Z,5.00
2023-04-04T03:59:37.610Z,7.20
2023-04-04T04:02:13.114Z,6.70
2023-04-04T04:04:47.539Z,6.90
2023-04-04T04:07:23.652Z,9.20
2023-04-04T04:10:00.851Z,6.70
2023-04-04T04:12:37.206Z,7.80
2023-04-04T04:15:13.644Z,6.40
2023-04-04T04:17:49.750Z,6.40
2023-04-04T04:20:24.682Z,7.00
2023-04-04T04:23:01.760Z,5.60
2023-04-04T04:25:39.606Z,6.50
2023-04-04T04:28:21.628Z,6.00
2023-04-04T04:30:56.322Z,4.80
2023-04-04T04:33:33.010Z,7.30
2023-04-04T04:36:12.859Z,4.50
2023-04-04T04:38:55.774Z,6.20
2023-04-04T04:41:35.064Z,6.50
2023-04-04T04:44:11.331Z,8.70
2023-04-04T04:46:47.676Z,5.60
2023-04-04T04:49:25.397Z,4.60
2023-04-04T04:52:01.406Z,6.30
2023-04-04T04:54:38.480Z,6.90
2023-04-04T04:57:14.588Z,6.70
2023-04-04T04:59:50.560Z,7.40
2023-04-04T05:02:26.166Z,8.30
2023-04-04T05:05:03.416Z,5.60
2023-04-04T05:07:40.051Z,5.90
2023-04-04T05:10:14.687Z,7.50
2023-04-04T05:12:52.067Z,7.70
2023-04-04T05:15:30.504Z,6.70
2023-04-04T05:18:06.296Z,5.00
2023-04-04T05:20:41.470Z,5.50
2023-04-04T05:23:17.586Z,6.00
2023-04-04T05:25:53.844Z,8.20
2023-04-04T05:28:30.751Z,4.90
2023-04-04T05:31:09.627Z,6.50
2023-04-04T05:33:46.694Z,6.40
2023-04-04T05:36:43.305Z,7.00
2023-04-04T05:39:18.888Z,4.20
2023-04-04T05:42:03.522Z,6.00
2023-04-04T05:44:41.731Z,5.00
2023-04-04T05:47:16.146Z,6.80
2023-04-04T05:49:56.608Z,5.30
2023-04-04T05:52:49.368Z,4.50
2023-04-04T05:55:24.935Z,3.50
2023-04-04T05:58:05.615Z,5.20
2023-04-04T06:01:00.410Z,4.40
2023-04-04T06:03:36.945Z,4.10
2023-04-04T06:06:16.153Z,5.00
2023-04-04T06:08:53.819Z,6.10
2023-04-04T06:11:34.708Z,6.10
2023-04-04T06:14:14.042Z,5.70
2023-04-04T06:16:52.885Z,6.80
2023-04-04T06:19:30.313Z,5.00
2023-04-04T06:22:05.842Z,6.30
2023-04-04T06:24:44.250Z,6.10
2023-04-04T06:27:19.099Z,6.30
2023-04-04T06:29:54.434Z,5.00
2023-04-04T06:32:30.731Z,6.60
2023-04-04T06:35:08.701Z,4.40
2023-04-04T06:37:56.824Z,4.60
2023-04-04T06:40:34.497Z,5.00
2023-04-04T06:43:12.424Z,4.60
2023-04-04T06:45:54.384Z,4.60
2023-04-04T06:48:31.152Z,5.00
2023-04-04T06:51:09.853Z,4.80
2023-04-04T06:53:47.663Z,6.40
2023-04-04T06:56:21.848Z,7.50
2023-04-04T06:59:02.450Z,5.90
2023-04-04T07:01:39.464Z,5.40
2023-04-04T07:04:14.323Z,3.50
2023-04-04T07:06:48.877Z,5.00
2023-04-04T07:09:29.245Z,5.60
2023-04-04T07:12:05.602Z,23.50
2023-04-04T07:14:41.548Z,24.00
2023-04-04T07:17:24.695Z,6.20
2023-04-04T07:20:08.797Z,35.80
2023-04-04T07:22:45.549Z,17.50
2023-04-04T07:25:23.991Z,8.80
2023-04-04T07:28:11.719Z,5.80
2023-04-04T07:30:47.926Z,8.50
2023-04-04T07:33:21.615Z,4.40
2023-04-04T07:35:57.424Z,4.90
2023-04-04T07:38:33.862Z,37.40
2023-04-04T07:41:10.233Z,8.20
2023-04-04T07:43:45.320Z,76.50
2023-04-04T07:46:23.348Z,27.80
2023-04-04T07:49:00.652Z,11.00
2023-04-04T07:51:36.190Z,8.10
2023-04-04T07:54:14.148Z,8.20
2023-04-04T07:56:50.708Z,7.10
2023-04-04T07:59:25.566Z,4.30
2023-04-04T08:02:00.934Z,5.10
2023-04-04T08:04:35.179Z,7.50
2023-04-04T08:07:11.944Z,10.90
2023-04-04T08:09:47.493Z,8.20
2023-04-04T08:12:23.475Z,5.20
2023-04-04T08:14:58.151Z,5.30
2023-04-04T08:17:35.300Z,7.60
2023-04-04T08:20:13.857Z,6.90
2023-04-04T08:22:50.757Z,5.60
2023-04-04T08:25:29.804Z,8.40
2023-04-04T08:28:05.944Z,6.50
2023-04-04T08:30:41.634Z,5.90
2023-04-04T08:33:18.023Z,5.80
2023-04-04T08:35:55.786Z,7.50
2023-04-04T08:38:30.126Z,7.60
2023-04-04T08:41:05.403Z,9.10
2023-04-04T08:43:41.648Z,5.50
2023-04-04T08:46:23.853Z,6.20
2023-04-04T08:49:00.968Z,5.60
2023-04-04T08:51:38.659Z,6.50
2023-04-04T08:54:19.865Z,5.10
2023-04-04T08:56:55.413Z,6.60
2023-04-04T08:59:30.287Z,4.90
2023-04-04T09:02:23.839Z,4.80
2023-04-04T09:05:06.213Z,6.20
2023-04-04T09:07:43.417Z,7.40
2023-04-04T09:10:19.648Z,6.00
2023-04-04T09:13:05.087Z,5.50
2023-04-04T09:15:51.134Z,8.70
2023-04-04T09:18:27.479Z,7.10
2023-04-04T09:21:13.422Z,6.50
2023-04-04T09:23:49.017Z,7.80
2023-04-04T09:26:24.391Z,4.60
2023-04-04T09:29:00.724Z,8.50
2023-04-04T09:31:35.496Z,10.70
2023-04-04T09:34:13.837Z,8.20
2023-04-04T09:36:48.784Z,95.00
2023-04-04T09:39:24.248Z,93.20
2023-04-04T09:42:02.588Z,141.70
2023-04-04T09:44:41.685Z,18.60
2023-04-04T09:47:34.447Z,8.40
2023-04-04T09:50:22.481Z,6.50
2023-04-04T09:53:03.690Z,7.70
2023-04-04T09:55:41.338Z,5.90
2023-04-04T09:58:20.209Z,7.10
2023-04-04T10:00:58.091Z,6.90
2023-04-04T10:03:33.581Z,5.00
2023-04-04T10:06:10.290Z,6.00
2023-04-04T10:08:47.402Z,6.90
2023-04-04T10:11:38.816Z,6.70
2023-04-04T10:14:15.425Z,8.20
2023-04-04T10:16:50.683Z,5.50
2023-04-04T10:19:30.655Z,3.90
2023-04-04T10:22:05.584Z,9.40
2023-04-04T10:24:40.721Z,5.20
2023-04-04T10:27:13.652Z,4.80
2023-04-04T10:29:50.136Z,4.80
2023-04-04T10:32:30.687Z,4.60
2023-04-04T10:35:11.013Z,4.70
2023-04-04T10:37:48.026Z,10.40
2023-04-04T10:40:24.873Z,4.50
2023-04-04T10:43:01.381Z,4.40
2023-04-04T10:45:40.368Z,6.90
2023-04-04T10:48:15.996Z,5.40
2023-04-04T10:50:53.804Z,7.50
2023-04-04T10:53:29.621Z,6.50
2023-04-04T10:56:05.206Z,8.00
2023-04-04T10:58:44.125Z,5.00
2023-04-04T11:01:22.339Z,5.40
2023-04-04T11:04:22.125Z,5.50
2023-04-04T11:07:13.898Z,6.60
2023-04-04T11:10:02.193Z,5.30
2023-04-04T11:12:46.203Z,6.00
2023-04-04T11:15:35.384Z,7.50
2023-04-04T11:18:30.741Z,6.30
2023-04-04T11:21:09.957Z,38.80
2023-04-04T11:24:20.020Z,12.50
2023-04-04T11:26:57.252Z,13.50
2023-04-04T11:29:59.852Z,4.50
2023-04-04T11:32:56.101Z,12.90
2023-04-04T11:35:41.479Z,12.40
2023-04-04T11:38:22.514Z,9.70
2023-04-04T11:41:01.757Z,8.60
2023-04-04T11:43:46.473Z,23.30
2023-04-04T11:46:21.615Z,8.70
2023-04-04T11:48:58.519Z,12.10
2023-04-04T11:51:35.162Z,10.50
2023-04-04T11:54:16.952Z,12.00
2023-04-04T11:56:54.924Z,20.10
2023-04-04T11:59:31.074Z,17.20
2023-04-04T12:02:09.745Z,13.50
2023-04-04T12:04:45.772Z,11.20
2023-04-04T12:07:22.204Z,8.70
2023-04-04T12:10:00.427Z,10.90
2023-04-04T12:12:43.913Z,9.10
2023-04-04T12:15:21.764Z,6.00
2023-04-04T12:17:59.032Z,7.20
2023-04-04T12:20:34.821Z,4.40
2023-04-04T12:23:11.119Z,7.50
2023-04-04T12:25:50.313Z,6.10
2023-04-04T12:28:29.496Z,7.00
2023-04-04T12:31:06.319Z,12.00
2023-04-04T12:33:42.369Z,6.20
2023-04-04T12:36:18.485Z,5.90
2023-04-04T12:39:10.719Z,10.50
2023-04-04T12:41:55.603Z,8.80
2023-04-04T12:44:36.320Z,12.30
2023-04-04T12:47:16.582Z,18.00
2023-04-04T12:49:55.556Z,8.40
2023-04-04T12:52:33.719Z,8.10
2023-04-04T12:55:21.888Z,7.20
2023-04-04T12:58:17.279Z,8.50
2023-04-04T13:00:54.858Z,5.50
2023-04-04T13:03:33.827Z,8.70
2023-04-04T13:06:15.459Z,5.50
2023-04-04T13:08:56.287Z,10.90
2023-04-04T13:12:03.069Z,94.90
2023-04-04T13:15:19.506Z,59.80
2023-04-04T13:18:14.830Z,171.70
2023-04-04T13:20:50.306Z,383.90
2023-04-04T13:23:27.200Z,457.00
2023-04-04T13:26:05.796Z,404.00
2023-04-04T13:28:43.288Z,18.40
2023-04-04T13:31:17.866Z,182.60
2023-04-04T13:33:53.029Z,10.00
2023-04-04T13:36:30.143Z,13.80
2023-04-04T13:39:05.764Z,5.10
2023-04-04T13:41:41.533Z,13.60
2023-04-04T13:44:17.548Z,9.90
2023-04-04T13:46:52.841Z,9.60
2023-04-04T13:49:27.958Z,5.70
2023-04-04T13:52:03.086Z,7.30
2023-04-04T13:54:37.477Z,9.10
2023-04-04T13:57:11.567Z,4.60
2023-04-04T13:59:46.402Z,8.90
2023-04-04T14:02:24.160Z,6.00
2023-04-04T14:05:02.261Z,5.90
2023-04-04T14:07:38.922Z,8.00
2023-04-04T14:10:16.981Z,21.10
2023-04-04T14:12:53.500Z,19.80
2023-04-04T14:15:30.561Z,85.20
2023-04-04T14:18:07.108Z,8.90
2023-04-04T14:20:40.423Z,21.50
2023-04-04T14:23:17.163Z,11.60
2023-04-04T14:25:56.157Z,11.80
2023-04-04T14:28:32.275Z,14.90
2023-04-04T14:31:06.470Z,8.30
2023-04-04T14:33:48.053Z,9.30
2023-04-04T14:36:25.023Z,7.20
2023-04-04T14:39:00.446Z,9.90
2023-04-04T14:41:37.572Z,12.70
2023-04-04T14:44:16.102Z,11.20
2023-04-04T14:46:52.300Z,9.60
2023-04-04T14:49:27.379Z,6.60
2023-04-04T14:52:04.979Z,4.80
2023-04-04T14:54:39.841Z,5.90
2023-04-04T14:57:18.990Z,6.30
2023-04-04T14:59:54.510Z,5.40
2023-04-04T15:02:33.038Z,5.90
2023-04-04T15:05:09.578Z,7.00
2023-04-04T15:07:44.883Z,4.80
2023-04-04T15:10:19.207Z,4.90
2023-04-04T15:12:53.812Z,5.70
2023-04-04T15:15:30.491Z,5.20
2023-04-04T15:18:10.596Z,4.90
2023-04-04T15:20:45.536Z,5.70
2023-04-04T15:23:21.340Z,9.80
2023-04-04T15:25:58.619Z,6.50
2023-04-04T15:28:33.973Z,3.80
2023-04-04T15:31:08.364Z,5.20
2023-04-04T15:33:46.814Z,4.90
2023-04-04T15:36:27.379Z,3.80
2023-04-04T15:39:04.553Z,7.00
2023-04-04T15:41:41.729Z,13.20
2023-04-04T15:44:19.112Z,33.10
2023-04-04T15:46:55.109Z,114.00
2023-04-04T15:49:31.672Z,95.70
2023-04-04T15:52:08.131Z,70.00
2023-04-04T15:54:47.797Z,12.60
2023-04-04T15:57:22.643Z,8.70
2023-04-04T15:59:58.039Z,9.20
2023-04-04T16:02:35.113Z,7.30
2023-04-04T16:05:11.366Z,56.20
2023-04-04T16:07:47.800Z,11.60
2023-04-04T16:10:22.216Z,10.30
2023-04-04T16:13:00.921Z,8.00
2023-04-04T16:15:38.852Z,8.10
2023-04-04T16:18:13.810Z,14.10
2023-04-04T16:20:50.060Z,11.20
2023-04-04T16:23:23.961Z,22.00
2023-04-04T16:25:59.367Z,13.90
2023-04-04T16:28:34.682Z,22.30
2023-04-04T16:31:09.536Z,10.10
2023-04-04T16:33:45.801Z,263.80
2023-04-04T16:36:20.969Z,21.80
2023-04-04T16:38:58.281Z,12.90
2023-04-04T16:41:34.892Z,9.60
2023-04-04T16:44:09.543Z,8.10
2023-04-04T16:46:45.377Z,10.70
2023-04-04T16:49:23.199Z,8.50
2023-04-04T16:51:58.964Z,10.80
2023-04-04T16:54:38.631Z,13.00
2023-04-04T16:57:13.518Z,19.20
2023-04-04T16:59:48.580Z,11.40
2023-04-04T17:02:22.681Z,12.00
2023-04-04T17:05:01.378Z,9.00
2023-04-04T17:07:36.202Z,18.30
2023-04-04T17:10:15.694Z,20.20
2023-04-04T17:12:49.568Z,10.30
2023-04-04T17:15:25.494Z,21.90
2023-04-04T17:18:01.683Z,15.20
2023-04-04T17:20:38.171Z,10.80
2023-04-04T17:23:11.579Z,11.90
2023-04-04T17:25:45.891Z,16.60
2023-04-04T17:28:20.790Z,15.60
2023-04-04T17:30:57.637Z,16.20
2023-04-04T17:33:33.126Z,17.20
2023-04-04T17:36:13.084Z,18.30
2023-04-04T17:38:50.220Z,20.60
2023-04-04T17:41:24.860Z,22.60
2023-04-04T17:43:59.551Z,18.50
2023-04-04T17:46:36.526Z,18.60
2023-04-04T17:49:12.575Z,18.10
2023-04-04T17:51:48.230Z,20.90
2023-04-04T17:54:26.018Z,30.80
2023-04-04T17:57:05.734Z,19.50
2023-04-04T17:59:41.728Z,21.40
2023-04-04T18:02:20.868Z,26.30
2023-04-04T18:04:59.666Z,25.00
2023-04-04T18:07:34.752Z,18.30
2023-04-04T18:10:14.227Z,19.10
2023-04-04T18:12:49.043Z,19.10
2023-04-04T18:15:24.386Z,20.70
2023-04-04T18:17:59.866Z,21.50
2023-04-04T18:20:38.520Z,25.50
2023-04-04T18:23:14.124Z,23.20
2023-04-04T18:25:49.748Z,19.80
2023-04-04T18:28:27.648Z,19.00
2023-04-04T18:31:02.568Z,18.10
2023-04-04T18:33:38.699Z,21.00
2023-04-04T18:36:12.891Z,22.70
2023-04-04T18:38:49.027Z,24.70
2023-04-04T18:41:24.866Z,21.40
2023-04-04T18:44:01.129Z,21.80
2023-04-04T18:46:35.464Z,23.10
2023-04-04T18:49:10.273Z,22.50
2023-04-04T18:51:47.771Z,21.70
2023-04-04T18:54:23.367Z,22.70
2023-04-04T18:56:59.060Z,33.20
2023-04-04T18:59:33.892Z,82.80
2023-04-04T19:02:08.850Z,22.60
2023-04-04T19:04:44.667Z,27.20
2023-04-04T19:07:22.312Z,21.80
2023-04-04T19:09:58.384Z,20.50
2023-04-04T19:12:40.941Z,19.60
2023-04-04T19:15:15.683Z,22.40
2023-04-04T19:17:53.589Z,21.30
2023-04-04T19:20:29.411Z,19.60
2023-04-04T19:23:07.757Z,22.10
2023-04-04T19:25:44.091Z,19.70
2023-04-04T19:28:19.444Z,21.10
2023-04-04T19:30:55.600Z,21.80
2023-04-04T19:33:29.372Z,21.80
2023-04-04T19:36:11.773Z,20.90
2023-04-04T19:38:49.347Z,21.80
2023-04-04T19:41:46.968Z,21.00
2023-04-04T19:44:22.482Z,25.70
2023-04-04T19:47:00.012Z,21.20
2023-04-04T19:49:36.828Z,23.30
2023-04-04T19:52:13.168Z,21.40
2023-04-04T19:54:49.098Z,39.00
2023-04-04T19:57:24.019Z,54.40
2023-04-04T20:00:11.180Z,44.20
2023-04-04T20:03:07.950Z,27.00
2023-04-04T20:06:00.017Z,26.40
2023-04-04T20:08:48.127Z,22.60
2023-04-04T20:11:30.859Z,22.90
2023-04-04T20:14:09.258Z,26.10
2023-04-04T20:16:44.693Z,26.70
2023-04-04T20:19:21.791Z,27.90
2023-04-04T20:21:59.608Z,24.80
2023-04-04T20:24:37.160Z,19.90
2023-04-04T20:27:13.339Z,23.10
2023-04-04T20:29:52.711Z,23.70
2023-04-04T20:32:27.901Z,30.90
2023-04-04T20:35:02.676Z,32.20
2023-04-04T20:37:39.465Z,32.30
2023-04-04T20:40:37.127Z,32.20
2023-04-04T20:43:12.231Z,34.60
2023-04-04T20:45:49.868Z,37.50
2023-04-04T20:48:40.398Z,36.40
2023-04-04T20:51:24.877Z,35.70
2023-04-04T20:54:04.198Z,35.70
2023-04-04T20:56:56.800Z,37.40
2023-04-04T21:00:04.945Z,34.10
2023-04-04T21:02:40.766Z,34.00
2023-04-04T21:05:30.681Z,36.80
2023-04-04T21:08:10.695Z,37.80
2023-04-04T21:10:55.106Z,34.90
2023-04-04T21:13:32.792Z,37.80
2023-04-04T21:16:12.243Z,39.60
2023-04-04T21:18:49.441Z,37.10
2023-04-04T21:21:26.623Z,38.50
2023-04-04T21:24:10.222Z,44.80
2023-04-04T21:26:45.945Z,41.20
2023-04-04T21:29:27.644Z,40.40
2023-04-04T21:32:04.037Z,42.70
2023-04-04T21:34:39.241Z,41.80
2023-04-04T21:37:16.307Z,39.20
2023-04-04T21:39:53.692Z,43.60
2023-04-04T21:42:27.729Z,40.40
2023-04-04T21:45:04.634Z,41.80
2023-04-04T21:47:41.007Z,42.70
2023-04-04T21:50:16.958Z,37.20
2023-04-04T21:52:50.913Z,31.30
2023-04-04T21:55:27.580Z,33.70
2023-04-04T21:58:02.530Z,27.80
2023-04-04T22:00:40.474Z,22.80
2023-04-04T22:03:17.341Z,19.60
2023-04-04T22:05:51.973Z,19.30
2023-04-04T22:08:29.178Z,17.40
2023-04-04T22:11:07.740Z,16.20
2023-04-04T22:13:48.167Z,15.20
2023-04-04T22:16:26.875Z,17.30
2023-04-04T22:19:04.537Z,21.70
2023-04-04T22:21:50.293Z,18.30
2023-04-04T22:24:24.722Z,19.90
2023-04-04T22:27:04.906Z,17.10
2023-04-04T22:29:42.339Z,20.50
2023-04-04T22:32:18.998Z,19.10
2023-04-04T22:34:54.420Z,20.30
2023-04-04T22:37:34.191Z,24.30
2023-04-04T22:40:14.233Z,22.60
2023-04-04T22:42:50.946Z,27.10
2023-04-04T22:45:30.460Z,37.80
2023-04-04T22:48:10.980Z,31.50
2023-04-04T22:50:50.543Z,40.90
2023-04-04T22:53:30.038Z,43.30
2023-04-04T22:56:13.379Z,40.20
2023-04-04T22:58:49.125Z,43.70
2023-04-04T23:01:27.954Z,47.40
2023-04-04T23:04:06.642Z,43.50
2023-04-04T23:06:42.144Z,49.80
2023-04-04T23:09:23.169Z,37.50
2023-04-04T23:11:59.537Z,38.00
2023-04-04T23:14:39.050Z,34.00
2023-04-04T23:17:17.545Z,34.00
2023-04-04T23:19:53.264Z,30.60
2023-04-04T23:22:29.646Z,33.90
2023-04-04T23:25:04.870Z,31.10
2023-04-04T23:27:40.552Z,33.30
2023-04-04T23:30:16.570Z,34.60
2023-04-04T23:32:53.212Z,33.30
2023-04-04T23:35:28.087Z,38.20
2023-04-04T23:38:02.762Z,36.50
2023-04-04T23:40:36.942Z,38.20
2023-04-04T23:43:13.111Z,33.40
2023-04-04T23:45:50.184Z,32.00
2023-04-04T23:48:26.340Z,32.70
2023-04-04T23:51:05.295Z,27.70
2023-04-04T23:53:44.212Z,29.40
2023-04-04T23:56:22.024Z,30.40
2023-04-04T23:59:10.100Z,29.20
